sensor_id;sensor_type;location;lat;lon;timestamp;temperature;humidity
36548;DHT22;22551;52.206;4.856;2023-04-24T00:02:21;10.10;99.90
36548;DHT22;22551;52.206;4.856;2023-04-24T00:07:24;10.10;99.90
36548;DHT22;22551;52.206;4.856;2023-04-24T00:12:28;10.10;99.90
36548;DHT22;22551;52.206;4.856;2023-04-24T00:17:30;10.00;99.90
36548;DHT22;22551;52.206;4.856;2023-04-24T00:22:33;10.10;99.90
36548;DHT22;22551;52.206;4.856;2023-04-24T00:27:36;10.10;99.90
36548;DHT22;22551;52.206;4.856;2023-04-24T00:32:39;10.00;99.90
36548;DHT22;22551;52.206;4.856;2023-04-24T00:37:41;10.00;99.90
36548;DHT22;22551;52.206;4.856;2023-04-24T00:42:45;10.00;99.90
36548;DHT22;22551;52.206;4.856;2023-04-24T00:47:48;9.90;99.90
36548;DHT22;22551;52.206;4.856;2023-04-24T00:52:50;9.80;99.90
36548;DHT22;22551;52.206;4.856;2023-04-24T00:57:54;9.80;99.90
36548;DHT22;22551;52.206;4.856;2023-04-24T01:02:58;9.80;99.90
36548;DHT22;22551;52.206;4.856;2023-04-24T01:08:01;9.90;99.90
36548;DHT22;22551;52.206;4.856;2023-04-24T01:13:07;9.90;99.90
36548;DHT22;22551;52.206;4.856;2023-04-24T01:18:09;9.90;99.90
36548;DHT22;22551;52.206;4.856;2023-04-24T01:23:13;9.80;99.90
36548;DHT22;22551;52.206;4.856;2023-04-24T01:28:16;9.80;99.90
36548;DHT22;22551;52.206;4.856;2023-04-24T01:33:19;9.80;99.90
36548;DHT22;22551;52.206;4.856;2023-04-24T01:38:24;9.70;99.90
36548;DHT22;22551;52.206;4.856;2023-04-24T01:43:26;9.70;99.90
36548;DHT22;22551;52.206;4.856;2023-04-24T01:48:29;9.70;99.90
36548;DHT22;22551;52.206;4.856;2023-04-24T01:53:33;9.70;99.90
36548;DHT22;22551;52.206;4.856;2023-04-24T01:58:35;9.60;99.90
36548;DHT22;22551;52.206;4.856;2023-04-24T02:03:38;9.60;99.90
36548;DHT22;22551;52.206;4.856;2023-04-24T02:08:42;9.60;99.90
36548;DHT22;22551;52.206;4.856;2023-04-24T02:13:45;9.60;99.90
36548;DHT22;22551;52.206;4.856;2023-04-24T02:18:47;9.60;99.90
36548;DHT22;22551;52.206;4.856;2023-04-24T02:23:51;9.60;99.90
36548;DHT22;22551;52.206;4.856;2023-04-24T02:28:53;9.70;99.90
36548;DHT22;22551;52.206;4.856;2023-04-24T02:33:55;9.70;99.90
36548;DHT22;22551;52.206;4.856;2023-04-24T02:38:59;9.60;99.90
36548;DHT22;22551;52.206;4.856;2023-04-24T02:44:01;9.60;99.90
36548;DHT22;22551;52.206;4.856;2023-04-24T02:49:03;9.60;99.90
36548;DHT22;22551;52.206;4.856;2023-04-24T02:54:07;9.60;99.90
36548;DHT22;22551;52.206;4.856;2023-04-24T02:59:10;9.60;99.90
36548;DHT22;22551;52.206;4.856;2023-04-24T03:04:12;9.60;99.90
36548;DHT22;22551;52.206;4.856;2023-04-24T03:09:15;9.60;99.90
36548;DHT22;22551;52.206;4.856;2023-04-24T03:14:18;9.60;99.90
36548;DHT22;22551;52.206;4.856;2023-04-24T03:19:20;9.60;99.90
36548;DHT22;22551;52.206;4.856;2023-04-24T03:24:23;9.60;99.90
36548;DHT22;22551;52.206;4.856;2023-04-24T03:29:28;9.60;99.90
36548;DHT22;22551;52.206;4.856;2023-04-24T03:34:30;9.60;99.90
36548;DHT22;22551;52.206;4.856;2023-04-24T03:39:34;9.60;99.90
36548;DHT22;22551;52.206;4.856;2023-04-24T03:44:37;9.50;99.90
36548;DHT22;22551;52.206;4.856;2023-04-24T03:49:39;9.50;99.90
36548;DHT22;22551;52.206;4.856;2023-04-24T03:54:42;9.50;99.90
36548;DHT22;22551;52.206;4.856;2023-04-24T03:59:44;9.50;99.90
36548;DHT22;22551;52.206;4.856;2023-04-24T04:04:46;9.50;99.90
36548;DHT22;22551;52.206;4.856;2023-04-24T04:09:51;9.40;99.90
36548;DHT22;22551;52.206;4.856;2023-04-24T04:14:53;9.30;99.90
36548;DHT22;22551;52.206;4.856;2023-04-24T04:19:56;9.20;99.90
36548;DHT22;22551;52.206;4.856;2023-04-24T04:24:59;9.10;99.90
36548;DHT22;22551;52.206;4.856;2023-04-24T04:30:02;9.00;99.90
36548;DHT22;22551;52.206;4.856;2023-04-24T04:35:06;9.00;99.90
36548;DHT22;22551;52.206;4.856;2023-04-24T04:40:11;9.00;99.90
36548;DHT22;22551;52.206;4.856;2023-04-24T04:45:13;9.00;99.90
36548;DHT22;22551;52.206;4.856;2023-04-24T04:50:17;8.90;99.90
36548;DHT22;22551;52.206;4.856;2023-04-24T04:55:21;8.90;99.90
36548;DHT22;22551;52.206;4.856;2023-04-24T05:00:23;9.00;99.90
36548;DHT22;22551;52.206;4.856;2023-04-24T05:05:25;9.00;99.90
36548;DHT22;22551;52.206;4.856;2023-04-24T05:10:31;9.00;99.90
36548;DHT22;22551;52.206;4.856;2023-04-24T05:15:34;9.10;99.90
36548;DHT22;22551;52.206;4.856;2023-04-24T05:20:36;9.10;99.90
36548;DHT22;22551;52.206;4.856;2023-04-24T05:25:40;9.10;99.90
36548;DHT22;22551;52.206;4.856;2023-04-24T05:30:43;9.00;99.90
36548;DHT22;22551;52.206;4.856;2023-04-24T05:35:46;9.10;99.90
36548;DHT22;22551;52.206;4.856;2023-04-24T05:40:49;9.10;99.90
36548;DHT22;22551;52.206;4.856;2023-04-24T05:45:51;9.00;99.90
36548;DHT22;22551;52.206;4.856;2023-04-24T05:50:54;8.80;99.90
36548;DHT22;22551;52.206;4.856;2023-04-24T05:55:57;8.80;99.90
36548;DHT22;22551;52.206;4.856;2023-04-24T06:00:59;8.70;99.90
36548;DHT22;22551;52.206;4.856;2023-04-24T06:06:03;8.60;99.90
36548;DHT22;22551;52.206;4.856;2023-04-24T06:11:07;8.50;99.90
36548;DHT22;22551;52.206;4.856;2023-04-24T06:16:09;8.50;99.90
36548;DHT22;22551;52.206;4.856;2023-04-24T06:21:11;8.40;99.90
36548;DHT22;22551;52.206;4.856;2023-04-24T06:26:16;8.40;99.90
36548;DHT22;22551;52.206;4.856;2023-04-24T06:31:19;8.50;99.90
36548;DHT22;22551;52.206;4.856;2023-04-24T06:36:22;8.60;99.90
36548;DHT22;22551;52.206;4.856;2023-04-24T06:41:25;8.50;99.90
36548;DHT22;22551;52.206;4.856;2023-04-24T06:46:27;8.60;99.90
36548;DHT22;22551;52.206;4.856;2023-04-24T06:51:29;8.60;99.90
36548;DHT22;22551;52.206;4.856;2023-04-24T06:56:34;8.60;99.90
36548;DHT22;22551;52.206;4.856;2023-04-24T07:01:37;8.60;99.90
36548;DHT22;22551;52.206;4.856;2023-04-24T07:06:39;8.60;99.90
36548;DHT22;22551;52.206;4.856;2023-04-24T07:11:42;8.60;99.90
36548;DHT22;22551;52.206;4.856;2023-04-24T07:16:45;8.70;99.90
36548;DHT22;22551;52.206;4.856;2023-04-24T07:21:47;8.70;99.90
36548;DHT22;22551;52.206;4.856;2023-04-24T07:26:52;8.80;99.90
36548;DHT22;22551;52.206;4.856;2023-04-24T07:31:55;8.90;99.90
36548;DHT22;22551;52.206;4.856;2023-04-24T07:36:57;8.90;99.90
36548;DHT22;22551;52.206;4.856;2023-04-24T07:42:01;8.80;99.90
36548;DHT22;22551;52.206;4.856;2023-04-24T07:47:04;8.90;99.90
36548;DHT22;22551;52.206;4.856;2023-04-24T07:52:06;9.00;99.90
36548;DHT22;22551;52.206;4.856;2023-04-24T07:57:10;9.20;99.90
36548;DHT22;22551;52.206;4.856;2023-04-24T08:02:12;9.20;99.90
36548;DHT22;22551;52.206;4.856;2023-04-24T08:07:15;9.10;99.90
36548;DHT22;22551;52.206;4.856;2023-04-24T08:12:18;9.00;99.90
36548;DHT22;22551;52.206;4.856;2023-04-24T08:17:21;8.90;99.90
36548;DHT22;22551;52.206;4.856;2023-04-24T08:22:23;8.80;99.90
36548;DHT22;22551;52.206;4.856;2023-04-24T08:27:27;9.00;99.90
36548;DHT22;22551;52.206;4.856;2023-04-24T08:32:29;8.90;99.90
36548;DHT22;22551;52.206;4.856;2023-04-24T08:37:32;9.00;99.90
36548;DHT22;22551;52.206;4.856;2023-04-24T08:42:37;9.00;99.90
36548;DHT22;22551;52.206;4.856;2023-04-24T08:47:40;9.00;99.90
36548;DHT22;22551;52.206;4.856;2023-04-24T08:52:43;9.10;99.90
36548;DHT22;22551;52.206;4.856;2023-04-24T08:57:50;9.40;99.90
36548;DHT22;22551;52.206;4.856;2023-04-24T09:02:55;9.70;99.90
36548;DHT22;22551;52.206;4.856;2023-04-24T09:07:59;9.50;99.90
36548;DHT22;22551;52.206;4.856;2023-04-24T09:13:02;9.50;99.90
36548;DHT22;22551;52.206;4.856;2023-04-24T09:18:05;9.60;99.90
36548;DHT22;22551;52.206;4.856;2023-04-24T09:23:08;9.60;99.90
36548;DHT22;22551;52.206;4.856;2023-04-24T09:28:18;9.80;99.90
36548;DHT22;22551;52.206;4.856;2023-04-24T09:33:20;9.70;99.90
36548;DHT22;22551;52.206;4.856;2023-04-24T09:38:31;9.60;99.90
36548;DHT22;22551;52.206;4.856;2023-04-24T09:43:35;9.50;99.90
36548;DHT22;22551;52.206;4.856;2023-04-24T09:48:37;9.30;99.90
36548;DHT22;22551;52.206;4.856;2023-04-24T09:53:39;9.50;99.90
36548;DHT22;22551;52.206;4.856;2023-04-24T09:58:48;9.60;99.90
36548;DHT22;22551;52.206;4.856;2023-04-24T10:03:51;9.80;99.90
36548;DHT22;22551;52.206;4.856;2023-04-24T10:08:53;10.10;99.90
36548;DHT22;22551;52.206;4.856;2023-04-24T10:13:58;10.40;99.90
36548;DHT22;22551;52.206;4.856;2023-04-24T10:19:03;10.40;99.90
36548;DHT22;22551;52.206;4.856;2023-04-24T10:24:05;10.50;99.90
36548;DHT22;22551;52.206;4.856;2023-04-24T10:29:10;11.50;99.90
36548;DHT22;22551;52.206;4.856;2023-04-24T10:34:15;11.10;99.90
36548;DHT22;22551;52.206;4.856;2023-04-24T10:39:22;10.70;99.90
36548;DHT22;22551;52.206;4.856;2023-04-24T10:44:36;9.80;99.90
36548;DHT22;22551;52.206;4.856;2023-04-24T10:49:38;9.90;99.90
36548;DHT22;22551;52.206;4.856;2023-04-24T10:54:44;10.10;99.90
36548;DHT22;22551;52.206;4.856;2023-04-24T10:59:50;10.70;99.90
36548;DHT22;22551;52.206;4.856;2023-04-24T11:04:54;10.30;99.90
36548;DHT22;22551;52.206;4.856;2023-04-24T11:09:58;10.50;99.90
36548;DHT22;22551;52.206;4.856;2023-04-24T11:15:03;10.40;99.90
36548;DHT22;22551;52.206;4.856;2023-04-24T11:20:17;11.30;99.90
36548;DHT22;22551;52.206;4.856;2023-04-24T11:25:21;11.60;99.90
36548;DHT22;22551;52.206;4.856;2023-04-24T11:30:29;11.00;99.90
36548;DHT22;22551;52.206;4.856;2023-04-24T11:35:39;10.90;99.90
36548;DHT22;22551;52.206;4.856;2023-04-24T11:40:42;10.80;99.90
36548;DHT22;22551;52.206;4.856;2023-04-24T11:45:49;11.30;99.90
36548;DHT22;22551;52.206;4.856;2023-04-24T11:50:51;11.80;99.90
36548;DHT22;22551;52.206;4.856;2023-04-24T11:55:56;12.40;99.90
36548;DHT22;22551;52.206;4.856;2023-04-24T12:00:59;12.60;99.90
36548;DHT22;22551;52.206;4.856;2023-04-24T12:06:06;12.10;99.90
36548;DHT22;22551;52.206;4.856;2023-04-24T12:11:08;12.10;99.90
36548;DHT22;22551;52.206;4.856;2023-04-24T12:16:12;11.90;99.90
36548;DHT22;22551;52.206;4.856;2023-04-24T12:21:17;11.50;99.90
36548;DHT22;22551;52.206;4.856;2023-04-24T12:26:20;11.20;99.90
36548;DHT22;22551;52.206;4.856;2023-04-24T12:31:24;10.80;99.90
36548;DHT22;22551;52.206;4.856;2023-04-24T12:36:30;10.70;99.90
36548;DHT22;22551;52.206;4.856;2023-04-24T12:41:32;10.70;99.90
36548;DHT22;22551;52.206;4.856;2023-04-24T12:46:36;11.00;99.90
36548;DHT22;22551;52.206;4.856;2023-04-24T12:51:38;11.00;99.90
36548;DHT22;22551;52.206;4.856;2023-04-24T12:56:40;11.50;99.90
36548;DHT22;22551;52.206;4.856;2023-04-24T13:01:44;11.50;99.90
36548;DHT22;22551;52.206;4.856;2023-04-24T13:06:46;11.70;99.90
36548;DHT22;22551;52.206;4.856;2023-04-24T13:11:49;11.30;99.90
36548;DHT22;22551;52.206;4.856;2023-04-24T13:16:53;11.20;99.90
36548;DHT22;22551;52.206;4.856;2023-04-24T13:21:56;11.20;99.90
36548;DHT22;22551;52.206;4.856;2023-04-24T13:27:00;12.10;99.90
36548;DHT22;22551;52.206;4.856;2023-04-24T13:32:04;12.30;99.90
36548;DHT22;22551;52.206;4.856;2023-04-24T13:37:07;12.30;99.90
36548;DHT22;22551;52.206;4.856;2023-04-24T13:42:09;11.90;99.90
36548;DHT22;22551;52.206;4.856;2023-04-24T13:47:13;12.20;99.90
36548;DHT22;22551;52.206;4.856;2023-04-24T13:52:16;11.90;99.90
36548;DHT22;22551;52.206;4.856;2023-04-24T13:57:18;12.10;99.90
36548;DHT22;22551;52.206;4.856;2023-04-24T14:02:24;12.00;99.90
36548;DHT22;22551;52.206;4.856;2023-04-24T14:07:28;11.70;99.90
36548;DHT22;22551;52.206;4.856;2023-04-24T14:12:31;11.60;99.90
36548;DHT22;22551;52.206;4.856;2023-04-24T14:17:34;11.40;99.90
36548;DHT22;22551;52.206;4.856;2023-04-24T14:22:37;11.70;99.90
36548;DHT22;22551;52.206;4.856;2023-04-24T14:27:39;11.70;99.90
36548;DHT22;22551;52.206;4.856;2023-04-24T14:32:43;11.40;99.90
36548;DHT22;22551;52.206;4.856;2023-04-24T14:37:55;10.80;99.90
36548;DHT22;22551;52.206;4.856;2023-04-24T14:43:13;10.90;99.90
36548;DHT22;22551;52.206;4.856;2023-04-24T14:48:19;10.80;99.90
36548;DHT22;22551;52.206;4.856;2023-04-24T14:53:33;10.30;99.90
36548;DHT22;22551;52.206;4.856;2023-04-24T14:58:52;10.30;99.90
36548;DHT22;22551;52.206;4.856;2023-04-24T15:04:31;11.00;99.90
36548;DHT22;22551;52.206;4.856;2023-04-24T15:09:49;11.10;99.90
36548;DHT22;22551;52.206;4.856;2023-04-24T15:14:52;11.60;99.90
36548;DHT22;22551;52.206;4.856;2023-04-24T15:19:57;11.60;99.90
36548;DHT22;22551;52.206;4.856;2023-04-24T15:25:01;12.20;99.90
36548;DHT22;22551;52.206;4.856;2023-04-24T15:30:05;11.70;99.90
36548;DHT22;22551;52.206;4.856;2023-04-24T15:41:23;11.60;99.90
36548;DHT22;22551;52.206;4.856;2023-04-24T15:46:26;11.30;99.90
36548;DHT22;22551;52.206;4.856;2023-04-24T15:51:30;11.10;99.90
36548;DHT22;22551;52.206;4.856;2023-04-24T15:56:34;11.00;99.90
36548;DHT22;22551;52.206;4.856;2023-04-24T16:01:37;10.90;99.90
36548;DHT22;22551;52.206;4.856;2023-04-24T16:07:06;11.20;99.90
36548;DHT22;22551;52.206;4.856;2023-04-24T16:13:19;11.50;99.90
36548;DHT22;22551;52.206;4.856;2023-04-24T16:18:21;11.10;99.90
36548;DHT22;22551;52.206;4.856;2023-04-24T16:23:27;10.60;99.90
36548;DHT22;22551;52.206;4.856;2023-04-24T16:28:29;10.60;99.90
36548;DHT22;22551;52.206;4.856;2023-04-24T16:33:32;10.40;99.90
36548;DHT22;22551;52.206;4.856;2023-04-24T16:38:37;10.30;99.90
36548;DHT22;22551;52.206;4.856;2023-04-24T16:43:42;10.40;99.90
36548;DHT22;22551;52.206;4.856;2023-04-24T16:48:44;10.30;99.90
36548;DHT22;22551;52.206;4.856;2023-04-24T16:53:48;10.20;99.90
36548;DHT22;22551;52.206;4.856;2023-04-24T16:58:51;10.10;99.90
36548;DHT22;22551;52.206;4.856;2023-04-24T17:03:55;10.10;99.90
36548;DHT22;22551;52.206;4.856;2023-04-24T17:08:59;10.20;99.90
36548;DHT22;22551;52.206;4.856;2023-04-24T17:14:01;10.10;99.90
36548;DHT22;22551;52.206;4.856;2023-04-24T17:19:06;10.10;99.90
36548;DHT22;22551;52.206;4.856;2023-04-24T17:24:09;10.00;99.90
36548;DHT22;22551;52.206;4.856;2023-04-24T17:29:17;9.90;99.90
36548;DHT22;22551;52.206;4.856;2023-04-24T17:34:29;9.80;99.90
36548;DHT22;22551;52.206;4.856;2023-04-24T17:40:14;9.60;99.90
36548;DHT22;22551;52.206;4.856;2023-04-24T17:45:40;9.50;99.90
36548;DHT22;22551;52.206;4.856;2023-04-24T17:50:44;9.50;99.90
36548;DHT22;22551;52.206;4.856;2023-04-24T17:55:48;9.40;99.90
36548;DHT22;22551;52.206;4.856;2023-04-24T18:00:50;9.40;99.90
36548;DHT22;22551;52.206;4.856;2023-04-24T18:05:53;9.20;99.90
36548;DHT22;22551;52.206;4.856;2023-04-24T18:11:02;9.20;99.90
36548;DHT22;22551;52.206;4.856;2023-04-24T18:16:07;9.00;99.90
36548;DHT22;22551;52.206;4.856;2023-04-24T18:21:13;8.90;99.90
36548;DHT22;22551;52.206;4.856;2023-04-24T18:26:17;8.80;99.90
36548;DHT22;22551;52.206;4.856;2023-04-24T18:31:25;8.80;99.90
36548;DHT22;22551;52.206;4.856;2023-04-24T18:36:28;8.70;99.90
36548;DHT22;22551;52.206;4.856;2023-04-24T18:41:35;8.70;99.90
36548;DHT22;22551;52.206;4.856;2023-04-24T18:46:40;8.70;99.90
36548;DHT22;22551;52.206;4.856;2023-04-24T18:51:47;8.70;99.90
36548;DHT22;22551;52.206;4.856;2023-04-24T18:56:50;8.50;99.90
36548;DHT22;22551;52.206;4.856;2023-04-24T19:01:55;8.50;99.90
36548;DHT22;22551;52.206;4.856;2023-04-24T19:07:00;8.50;99.90
36548;DHT22;22551;52.206;4.856;2023-04-24T19:12:16;8.40;99.90
36548;DHT22;22551;52.206;4.856;2023-04-24T19:17:19;8.20;99.90
36548;DHT22;22551;52.206;4.856;2023-04-24T19:22:32;8.20;99.90
36548;DHT22;22551;52.206;4.856;2023-04-24T19:27:48;8.20;99.90
36548;DHT22;22551;52.206;4.856;2023-04-24T19:32:50;8.10;99.90
36548;DHT22;22551;52.206;4.856;2023-04-24T19:37:59;7.90;99.90
36548;DHT22;22551;52.206;4.856;2023-04-24T19:43:22;7.80;99.90
36548;DHT22;22551;52.206;4.856;2023-04-24T19:48:30;7.80;99.90
36548;DHT22;22551;52.206;4.856;2023-04-24T19:53:42;7.70;99.90
36548;DHT22;22551;52.206;4.856;2023-04-24T19:59:14;7.80;99.90
36548;DHT22;22551;52.206;4.856;2023-04-24T20:04:33;7.80;99.90
36548;DHT22;22551;52.206;4.856;2023-04-24T20:10:04;7.80;99.90
36548;DHT22;22551;52.206;4.856;2023-04-24T20:16:03;7.80;99.90
36548;DHT22;22551;52.206;4.856;2023-04-24T20:21:13;7.70;99.90
36548;DHT22;22551;52.206;4.856;2023-04-24T20:26:41;7.70;99.90
36548;DHT22;22551;52.206;4.856;2023-04-24T20:32:05;7.70;99.90
36548;DHT22;22551;52.206;4.856;2023-04-24T20:37:17;7.60;99.90
36548;DHT22;22551;52.206;4.856;2023-04-24T20:42:21;7.60;99.90
36548;DHT22;22551;52.206;4.856;2023-04-24T20:47:28;7.60;99.90
36548;DHT22;22551;52.206;4.856;2023-04-24T20:52:31;7.50;99.90
36548;DHT22;22551;52.206;4.856;2023-04-24T20:57:34;7.50;99.90
36548;DHT22;22551;52.206;4.856;2023-04-24T21:02:59;7.50;99.90
36548;DHT22;22551;52.206;4.856;2023-04-24T21:08:01;7.50;99.90
36548;DHT22;22551;52.206;4.856;2023-04-24T21:13:04;7.50;99.90
36548;DHT22;22551;52.206;4.856;2023-04-24T21:18:12;7.60;99.90
36548;DHT22;22551;52.206;4.856;2023-04-24T21:23:26;7.60;99.90
36548;DHT22;22551;52.206;4.856;2023-04-24T21:28:30;7.40;99.90
36548;DHT22;22551;52.206;4.856;2023-04-24T21:33:34;7.30;99.90
36548;DHT22;22551;52.206;4.856;2023-04-24T21:38:36;7.20;99.90
36548;DHT22;22551;52.206;4.856;2023-04-24T21:43:39;7.10;99.90
36548;DHT22;22551;52.206;4.856;2023-04-24T21:48:52;7.00;99.90
36548;DHT22;22551;52.206;4.856;2023-04-24T21:54:03;6.90;99.90
36548;DHT22;22551;52.206;4.856;2023-04-24T21:59:17;6.80;99.90
36548;DHT22;22551;52.206;4.856;2023-04-24T22:04:20;6.70;99.90
36548;DHT22;22551;52.206;4.856;2023-04-24T22:09:23;6.70;99.90
36548;DHT22;22551;52.206;4.856;2023-04-24T22:14:28;6.50;99.90
36548;DHT22;22551;52.206;4.856;2023-04-24T22:20:07;6.60;99.90
36548;DHT22;22551;52.206;4.856;2023-04-24T22:25:22;6.50;99.90
36548;DHT22;22551;52.206;4.856;2023-04-24T22:30:46;6.40;99.90
36548;DHT22;22551;52.206;4.856;2023-04-24T22:36:03;6.40;99.90
36548;DHT22;22551;52.206;4.856;2023-04-24T22:41:07;6.30;99.90
36548;DHT22;22551;52.206;4.856;2023-04-24T22:46:18;6.20;99.90
36548;DHT22;22551;52.206;4.856;2023-04-24T22:51:25;6.20;99.90
36548;DHT22;22551;52.206;4.856;2023-04-24T22:56:33;6.10;99.90
36548;DHT22;22551;52.206;4.856;2023-04-24T23:01:47;6.00;99.90
36548;DHT22;22551;52.206;4.856;2023-04-24T23:07:00;5.90;99.90
36548;DHT22;22551;52.206;4.856;2023-04-24T23:12:03;5.90;99.90
36548;DHT22;22551;52.206;4.856;2023-04-24T23:17:22;6.00;99.90
36548;DHT22;22551;52.206;4.856;2023-04-24T23:22:26;6.00;99.90
36548;DHT22;22551;52.206;4.856;2023-04-24T23:27:40;6.00;99.90
36548;DHT22;22551;52.206;4.856;2023-04-24T23:32:42;6.20;99.90
36548;DHT22;22551;52.206;4.856;2023-04-24T23:38:05;6.40;99.90
36548;DHT22;22551;52.206;4.856;2023-04-24T23:43:16;6.40;99.90
36548;DHT22;22551;52.206;4.856;2023-04-24T23:48:29;6.30;99.90
36548;DHT22;22551;52.206;4.856;2023-04-24T23:53:33;6.10;99.90
36548;DHT22;22551;52.206;4.856;2023-04-24T23:58:41;6.10;99.90
